sensor_id;sensor_type;location;lat;lon;timestamp;temperature;humidity
75363;DHT22;64122;51.988;5.892;2023-04-03T00:00:53;5.37;59.28
75363;DHT22;64122;51.988;5.892;2023-04-03T00:03:30;5.36;59.34
75363;DHT22;64122;51.988;5.892;2023-04-03T00:06:00;5.36;59.28
75363;DHT22;64122;51.988;5.892;2023-04-03T00:08:37;5.33;59.38
75363;DHT22;64122;51.988;5.892;2023-04-03T00:11:13;5.34;59.32
75363;DHT22;64122;51.988;5.892;2023-04-03T00:13:55;5.28;59.44
75363;DHT22;64122;51.988;5.892;2023-04-03T00:16:27;5.25;59.61
75363;DHT22;64122;51.988;5.892;2023-04-03T00:18:59;5.23;59.59
75363;DHT22;64122;51.988;5.892;2023-04-03T00:21:56;5.20;59.58
75363;DHT22;64122;51.988;5.892;2023-04-03T00:24:29;5.15;59.80
75363;DHT22;64122;51.988;5.892;2023-04-03T00:27:10;5.12;59.90
75363;DHT22;64122;51.988;5.892;2023-04-03T00:29:45;5.13;59.91
75363;DHT22;64122;51.988;5.892;2023-04-03T00:32:23;5.09;60.05
75363;DHT22;64122;51.988;5.892;2023-04-03T00:35:02;5.08;60.12
75363;DHT22;64122;51.988;5.892;2023-04-03T00:37:33;5.05;60.38
75363;DHT22;64122;51.988;5.892;2023-04-03T00:40:07;5.05;60.36
75363;DHT22;64122;51.988;5.892;2023-04-03T00:42:41;5.04;60.35
75363;DHT22;64122;51.988;5.892;2023-04-03T00:45:30;5.04;60.24
75363;DHT22;64122;51.988;5.892;2023-04-03T00:48:06;5.04;60.49
75363;DHT22;64122;51.988;5.892;2023-04-03T00:50:41;5.02;60.64
75363;DHT22;64122;51.988;5.892;2023-04-03T00:53:18;5.02;60.63
75363;DHT22;64122;51.988;5.892;2023-04-03T00:55:51;5.02;60.86
75363;DHT22;64122;51.988;5.892;2023-04-03T00:58:37;5.02;60.80
75363;DHT22;64122;51.988;5.892;2023-04-03T01:01:16;5.02;60.87
75363;DHT22;64122;51.988;5.892;2023-04-03T01:03:54;5.03;61.09
75363;DHT22;64122;51.988;5.892;2023-04-03T01:06:30;5.04;60.99
75363;DHT22;64122;51.988;5.892;2023-04-03T01:09:10;5.02;61.18
75363;DHT22;64122;51.988;5.892;2023-04-03T01:11:45;5.05;61.18
75363;DHT22;64122;51.988;5.892;2023-04-03T01:14:24;5.07;61.06
75363;DHT22;64122;51.988;5.892;2023-04-03T01:17:03;5.06;61.21
75363;DHT22;64122;51.988;5.892;2023-04-03T01:19:56;5.05;61.24
75363;DHT22;64122;51.988;5.892;2023-04-03T01:22:33;5.05;61.38
75363;DHT22;64122;51.988;5.892;2023-04-03T01:25:35;5.05;61.41
75363;DHT22;64122;51.988;5.892;2023-04-03T01:28:14;5.05;61.52
75363;DHT22;64122;51.988;5.892;2023-04-03T01:31:18;5.02;61.60
75363;DHT22;64122;51.988;5.892;2023-04-03T01:34:07;5.05;61.53
75363;DHT22;64122;51.988;5.892;2023-04-03T01:36:52;5.06;61.70
75363;DHT22;64122;51.988;5.892;2023-04-03T01:42:11;5.03;61.88
75363;DHT22;64122;51.988;5.892;2023-04-03T01:44:55;5.05;61.78
75363;DHT22;64122;51.988;5.892;2023-04-03T01:47:53;5.06;61.82
75363;DHT22;64122;51.988;5.892;2023-04-03T01:50:37;5.07;62.15
75363;DHT22;64122;51.988;5.892;2023-04-03T01:56:09;5.08;62.15
75363;DHT22;64122;51.988;5.892;2023-04-03T01:59:03;5.07;62.16
75363;DHT22;64122;51.988;5.892;2023-04-03T02:01:45;5.07;62.31
75363;DHT22;64122;51.988;5.892;2023-04-03T02:04:19;5.09;62.37
75363;DHT22;64122;51.988;5.892;2023-04-03T02:07:02;5.07;62.34
75363;DHT22;64122;51.988;5.892;2023-04-03T02:09:45;5.05;62.30
75363;DHT22;64122;51.988;5.892;2023-04-03T02:12:25;5.04;62.46
75363;DHT22;64122;51.988;5.892;2023-04-03T02:15:00;5.01;62.64
75363;DHT22;64122;51.988;5.892;2023-04-03T02:17:37;5.02;62.57
75363;DHT22;64122;51.988;5.892;2023-04-03T02:23:06;4.83;62.79
75363;DHT22;64122;51.988;5.892;2023-04-03T02:25:49;4.89;62.93
75363;DHT22;64122;51.988;5.892;2023-04-03T02:28:37;4.91;62.76
75363;DHT22;64122;51.988;5.892;2023-04-03T02:31:14;4.78;62.97
75363;DHT22;64122;51.988;5.892;2023-04-03T02:33:58;4.87;62.95
75363;DHT22;64122;51.988;5.892;2023-04-03T02:36:42;4.89;62.86
75363;DHT22;64122;51.988;5.892;2023-04-03T02:39:40;4.89;62.92
75363;DHT22;64122;51.988;5.892;2023-04-03T02:42:19;4.88;63.08
75363;DHT22;64122;51.988;5.892;2023-04-03T02:44:53;4.89;63.25
75363;DHT22;64122;51.988;5.892;2023-04-03T02:50:19;4.90;63.41
75363;DHT22;64122;51.988;5.892;2023-04-03T02:52:53;4.91;63.26
75363;DHT22;64122;51.988;5.892;2023-04-03T02:55:31;4.91;63.17
75363;DHT22;64122;51.988;5.892;2023-04-03T02:58:30;4.90;63.38
75363;DHT22;64122;51.988;5.892;2023-04-03T03:01:03;4.89;63.31
75363;DHT22;64122;51.988;5.892;2023-04-03T03:03:33;4.84;63.46
75363;DHT22;64122;51.988;5.892;2023-04-03T03:06:10;4.86;63.44
75363;DHT22;64122;51.988;5.892;2023-04-03T03:08:44;4.82;63.50
75363;DHT22;64122;51.988;5.892;2023-04-03T03:11:17;4.81;63.50
75363;DHT22;64122;51.988;5.892;2023-04-03T03:16:58;4.73;63.41
75363;DHT22;64122;51.988;5.892;2023-04-03T03:19:39;4.69;63.56
75363;DHT22;64122;51.988;5.892;2023-04-03T03:22:09;4.67;63.64
75363;DHT22;64122;51.988;5.892;2023-04-03T03:24:43;4.67;63.74
75363;DHT22;64122;51.988;5.892;2023-04-03T03:27:16;4.66;63.54
75363;DHT22;64122;51.988;5.892;2023-04-03T03:29:59;4.63;63.64
75363;DHT22;64122;51.988;5.892;2023-04-03T03:32:38;4.63;63.48
75363;DHT22;64122;51.988;5.892;2023-04-03T03:35:10;4.59;63.72
75363;DHT22;64122;51.988;5.892;2023-04-03T03:38:09;4.56;63.65
75363;DHT22;64122;51.988;5.892;2023-04-03T03:40:47;4.53;63.72
75363;DHT22;64122;51.988;5.892;2023-04-03T03:43:29;4.49;63.98
75363;DHT22;64122;51.988;5.892;2023-04-03T03:46:04;4.48;63.69
75363;DHT22;64122;51.988;5.892;2023-04-03T03:48:44;4.43;63.82
75363;DHT22;64122;51.988;5.892;2023-04-03T03:51:15;4.24;64.21
75363;DHT22;64122;51.988;5.892;2023-04-03T03:53:47;4.30;64.14
75363;DHT22;64122;51.988;5.892;2023-04-03T03:56:27;4.31;64.09
75363;DHT22;64122;51.988;5.892;2023-04-03T03:59:14;4.28;63.78
75363;DHT22;64122;51.988;5.892;2023-04-03T04:01:56;4.24;63.98
75363;DHT22;64122;51.988;5.892;2023-04-03T04:04:30;4.21;64.14
75363;DHT22;64122;51.988;5.892;2023-04-03T04:07:02;4.07;64.15
75363;DHT22;64122;51.988;5.892;2023-04-03T04:09:33;4.09;64.21
75363;DHT22;64122;51.988;5.892;2023-04-03T04:12:12;4.10;64.11
75363;DHT22;64122;51.988;5.892;2023-04-03T04:14:52;4.07;64.24
75363;DHT22;64122;51.988;5.892;2023-04-03T04:17:45;4.04;64.34
75363;DHT22;64122;51.988;5.892;2023-04-03T04:20:28;4.03;64.34
75363;DHT22;64122;51.988;5.892;2023-04-03T04:23:06;4.02;64.43
75363;DHT22;64122;51.988;5.892;2023-04-03T04:25:41;3.97;64.71
75363;DHT22;64122;51.988;5.892;2023-04-03T04:28:17;3.97;64.53
75363;DHT22;64122;51.988;5.892;2023-04-03T04:30:54;3.93;64.71
75363;DHT22;64122;51.988;5.892;2023-04-03T04:33:31;3.88;64.80
75363;DHT22;64122;51.988;5.892;2023-04-03T04:36:06;3.89;64.94
75363;DHT22;64122;51.988;5.892;2023-04-03T04:38:39;3.85;65.04
75363;DHT22;64122;51.988;5.892;2023-04-03T04:41:10;3.83;65.11
75363;DHT22;64122;51.988;5.892;2023-04-03T04:43:43;3.79;65.15
75363;DHT22;64122;51.988;5.892;2023-04-03T04:46:19;3.74;65.25
75363;DHT22;64122;51.988;5.892;2023-04-03T04:48:54;3.70;65.40
75363;DHT22;64122;51.988;5.892;2023-04-03T04:51:27;3.54;65.41
75363;DHT22;64122;51.988;5.892;2023-04-03T04:54:02;3.56;65.57
75363;DHT22;64122;51.988;5.892;2023-04-03T04:56:38;3.59;65.39
75363;DHT22;64122;51.988;5.892;2023-04-03T04:59:12;3.61;65.10
75363;DHT22;64122;51.988;5.892;2023-04-03T05:01:46;3.62;65.08
75363;DHT22;64122;51.988;5.892;2023-04-03T05:04:26;3.60;65.01
75363;DHT22;64122;51.988;5.892;2023-04-03T05:07:03;3.59;65.05
75363;DHT22;64122;51.988;5.892;2023-04-03T05:09:35;3.60;65.01
75363;DHT22;64122;51.988;5.892;2023-04-03T05:12:07;3.61;64.85
75363;DHT22;64122;51.988;5.892;2023-04-03T05:14:43;3.60;64.95
75363;DHT22;64122;51.988;5.892;2023-04-03T05:17:16;3.61;64.84
75363;DHT22;64122;51.988;5.892;2023-04-03T05:19:52;3.67;64.63
75363;DHT22;64122;51.988;5.892;2023-04-03T05:22:29;3.67;64.51
75363;DHT22;64122;51.988;5.892;2023-04-03T05:25:09;3.70;64.30
75363;DHT22;64122;51.988;5.892;2023-04-03T05:27:46;3.70;64.05
75363;DHT22;64122;51.988;5.892;2023-04-03T05:30:20;3.71;64.09
75363;DHT22;64122;51.988;5.892;2023-04-03T05:32:58;3.73;63.88
75363;DHT22;64122;51.988;5.892;2023-04-03T05:35:38;3.73;63.71
75363;DHT22;64122;51.988;5.892;2023-04-03T05:38:19;3.75;63.56
75363;DHT22;64122;51.988;5.892;2023-04-03T05:40:49;3.65;63.65
75363;DHT22;64122;51.988;5.892;2023-04-03T05:43:21;3.69;63.53
75363;DHT22;64122;51.988;5.892;2023-04-03T05:45:54;3.77;63.28
75363;DHT22;64122;51.988;5.892;2023-04-03T05:48:33;3.84;63.27
75363;DHT22;64122;51.988;5.892;2023-04-03T05:51:05;3.86;63.42
75363;DHT22;64122;51.988;5.892;2023-04-03T05:53:39;3.93;63.56
75363;DHT22;64122;51.988;5.892;2023-04-03T05:56:09;3.98;63.17
75363;DHT22;64122;51.988;5.892;2023-04-03T05:58:41;4.04;62.91
75363;DHT22;64122;51.988;5.892;2023-04-03T06:01:13;4.06;62.76
75363;DHT22;64122;51.988;5.892;2023-04-03T06:03:52;4.08;62.60
75363;DHT22;64122;51.988;5.892;2023-04-03T06:06:43;4.14;62.63
75363;DHT22;64122;51.988;5.892;2023-04-03T06:09:13;4.18;62.43
75363;DHT22;64122;51.988;5.892;2023-04-03T06:11:46;4.21;62.33
75363;DHT22;64122;51.988;5.892;2023-04-03T06:14:24;4.23;62.19
75363;DHT22;64122;51.988;5.892;2023-04-03T06:16:54;4.26;62.38
75363;DHT22;64122;51.988;5.892;2023-04-03T06:19:28;4.29;62.08
75363;DHT22;64122;51.988;5.892;2023-04-03T06:21:58;4.31;62.00
75363;DHT22;64122;51.988;5.892;2023-04-03T06:24:27;4.34;61.83
75363;DHT22;64122;51.988;5.892;2023-04-03T06:27:00;4.42;62.05
75363;DHT22;64122;51.988;5.892;2023-04-03T06:29:35;4.45;61.82
75363;DHT22;64122;51.988;5.892;2023-04-03T06:32:08;4.50;61.44
75363;DHT22;64122;51.988;5.892;2023-04-03T06:34:40;4.47;61.74
75363;DHT22;64122;51.988;5.892;2023-04-03T06:37:15;4.58;61.25
75363;DHT22;64122;51.988;5.892;2023-04-03T06:39:46;4.63;60.93
75363;DHT22;64122;51.988;5.892;2023-04-03T06:42:16;4.68;60.85
75363;DHT22;64122;51.988;5.892;2023-04-03T06:45:06;4.76;60.35
75363;DHT22;64122;51.988;5.892;2023-04-03T06:47:37;4.72;59.83
75363;DHT22;64122;51.988;5.892;2023-04-03T06:50:10;4.79;60.02
75363;DHT22;64122;51.988;5.892;2023-04-03T06:52:41;4.90;59.96
75363;DHT22;64122;51.988;5.892;2023-04-03T06:55:11;5.00;59.77
75363;DHT22;64122;51.988;5.892;2023-04-03T06:57:40;5.08;59.41
75363;DHT22;64122;51.988;5.892;2023-04-03T07:00:14;5.17;59.19
75363;DHT22;64122;51.988;5.892;2023-04-03T07:02:45;5.23;58.92
75363;DHT22;64122;51.988;5.892;2023-04-03T07:05:17;5.33;58.76
75363;DHT22;64122;51.988;5.892;2023-04-03T07:07:47;5.42;58.35
75363;DHT22;64122;51.988;5.892;2023-04-03T07:10:17;5.47;57.76
75363;DHT22;64122;51.988;5.892;2023-04-03T07:12:46;6.20;56.29
75363;DHT22;64122;51.988;5.892;2023-04-03T07:15:16;9.44;48.76
75363;DHT22;64122;51.988;5.892;2023-04-03T07:17:47;13.15;41.16
75363;DHT22;64122;51.988;5.892;2023-04-03T07:20:19;15.02;36.82
75363;DHT22;64122;51.988;5.892;2023-04-03T07:22:49;15.69;34.41
75363;DHT22;64122;51.988;5.892;2023-04-03T07:25:21;16.03;32.91
75363;DHT22;64122;51.988;5.892;2023-04-03T07:27:50;17.20;31.54
75363;DHT22;64122;51.988;5.892;2023-04-03T07:30:20;17.98;30.29
75363;DHT22;64122;51.988;5.892;2023-04-03T07:32:50;18.49;28.95
75363;DHT22;64122;51.988;5.892;2023-04-03T07:35:22;19.46;28.10
75363;DHT22;64122;51.988;5.892;2023-04-03T07:37:51;20.37;26.70
75363;DHT22;64122;51.988;5.892;2023-04-03T07:40:23;21.02;24.75
75363;DHT22;64122;51.988;5.892;2023-04-03T07:42:52;21.65;23.98
75363;DHT22;64122;51.988;5.892;2023-04-03T07:45:28;22.08;23.01
75363;DHT22;64122;51.988;5.892;2023-04-03T07:47:59;22.34;22.39
75363;DHT22;64122;51.988;5.892;2023-04-03T07:50:31;21.62;23.22
75363;DHT22;64122;51.988;5.892;2023-04-03T07:53:03;21.58;22.79
75363;DHT22;64122;51.988;5.892;2023-04-03T07:55:34;22.07;22.12
75363;DHT22;64122;51.988;5.892;2023-04-03T07:58:12;22.40;21.18
75363;DHT22;64122;51.988;5.892;2023-04-03T08:00:42;22.12;21.42
75363;DHT22;64122;51.988;5.892;2023-04-03T08:03:13;22.17;21.18
75363;DHT22;64122;51.988;5.892;2023-04-03T08:05:47;22.37;20.89
75363;DHT22;64122;51.988;5.892;2023-04-03T08:08:18;22.63;20.40
75363;DHT22;64122;51.988;5.892;2023-04-03T08:10:49;23.00;19.34
75363;DHT22;64122;51.988;5.892;2023-04-03T08:13:19;23.01;18.72
75363;DHT22;64122;51.988;5.892;2023-04-03T08:15:50;22.86;18.80
75363;DHT22;64122;51.988;5.892;2023-04-03T08:18:19;23.16;18.66
75363;DHT22;64122;51.988;5.892;2023-04-03T08:20:53;23.25;18.40
75363;DHT22;64122;51.988;5.892;2023-04-03T08:23:22;23.44;17.26
75363;DHT22;64122;51.988;5.892;2023-04-03T08:25:55;23.84;17.24
75363;DHT22;64122;51.988;5.892;2023-04-03T08:28:24;23.90;17.29
75363;DHT22;64122;51.988;5.892;2023-04-03T08:30:54;23.57;17.03
75363;DHT22;64122;51.988;5.892;2023-04-03T08:33:23;23.80;16.51
75363;DHT22;64122;51.988;5.892;2023-04-03T08:35:56;23.84;17.06
75363;DHT22;64122;51.988;5.892;2023-04-03T08:38:26;23.26;17.12
75363;DHT22;64122;51.988;5.892;2023-04-03T08:41:11;22.99;17.23
75363;DHT22;64122;51.988;5.892;2023-04-03T08:43:56;22.96;16.65
75363;DHT22;64122;51.988;5.892;2023-04-03T08:46:42;22.98;16.72
75363;DHT22;64122;51.988;5.892;2023-04-03T08:49:22;22.86;16.48
75363;DHT22;64122;51.988;5.892;2023-04-03T08:51:57;23.42;16.22
75363;DHT22;64122;51.988;5.892;2023-04-03T08:54:30;23.07;15.71
75363;DHT22;64122;51.988;5.892;2023-04-03T08:57:04;22.93;15.61
75363;DHT22;64122;51.988;5.892;2023-04-03T08:59:39;22.55;16.09
75363;DHT22;64122;51.988;5.892;2023-04-03T09:02:25;22.72;15.35
75363;DHT22;64122;51.988;5.892;2023-04-03T09:04:59;22.82;14.30
75363;DHT22;64122;51.988;5.892;2023-04-03T09:07:42;23.02;14.65
75363;DHT22;64122;51.988;5.892;2023-04-03T09:10:28;23.12;13.92
75363;DHT22;64122;51.988;5.892;2023-04-03T09:13:03;23.00;14.45
75363;DHT22;64122;51.988;5.892;2023-04-03T09:15:34;22.46;14.23
75363;DHT22;64122;51.988;5.892;2023-04-03T09:18:13;21.92;14.29
75363;DHT22;64122;51.988;5.892;2023-04-03T09:20:49;21.69;14.61
75363;DHT22;64122;51.988;5.892;2023-04-03T09:23:28;21.68;13.46
75363;DHT22;64122;51.988;5.892;2023-04-03T09:26:02;21.19;14.00
75363;DHT22;64122;51.988;5.892;2023-04-03T09:28:38;20.95;14.49
75363;DHT22;64122;51.988;5.892;2023-04-03T09:31:18;20.62;14.74
75363;DHT22;64122;51.988;5.892;2023-04-03T09:33:54;19.92;15.32
75363;DHT22;64122;51.988;5.892;2023-04-03T09:36:42;19.86;15.39
75363;DHT22;64122;51.988;5.892;2023-04-03T09:39:16;19.33;14.99
75363;DHT22;64122;51.988;5.892;2023-04-03T09:41:57;19.24;15.51
75363;DHT22;64122;51.988;5.892;2023-04-03T09:44:29;19.06;15.48
75363;DHT22;64122;51.988;5.892;2023-04-03T09:46:59;18.69;16.10
75363;DHT22;64122;51.988;5.892;2023-04-03T09:49:31;18.39;16.52
75363;DHT22;64122;51.988;5.892;2023-04-03T09:52:18;17.98;16.72
75363;DHT22;64122;51.988;5.892;2023-04-03T09:54:52;17.56;16.55
75363;DHT22;64122;51.988;5.892;2023-04-03T09:57:22;17.06;16.64
75363;DHT22;64122;51.988;5.892;2023-04-03T09:59:58;16.93;17.28
75363;DHT22;64122;51.988;5.892;2023-04-03T10:02:38;16.21;17.70
75363;DHT22;64122;51.988;5.892;2023-04-03T10:05:25;15.78;18.85
75363;DHT22;64122;51.988;5.892;2023-04-03T10:11:12;14.80;20.21
75363;DHT22;64122;51.988;5.892;2023-04-03T10:13:55;14.59;20.65
75363;DHT22;64122;51.988;5.892;2023-04-03T10:16:35;14.12;20.88
75363;DHT22;64122;51.988;5.892;2023-04-03T10:19:22;13.61;22.06
75363;DHT22;64122;51.988;5.892;2023-04-03T10:21:59;13.46;22.99
75363;DHT22;64122;51.988;5.892;2023-04-03T10:24:38;13.32;23.24
75363;DHT22;64122;51.988;5.892;2023-04-03T10:27:22;13.11;23.87
75363;DHT22;64122;51.988;5.892;2023-04-03T10:30:01;12.97;24.06
75363;DHT22;64122;51.988;5.892;2023-04-03T10:32:45;12.85;23.90
75363;DHT22;64122;51.988;5.892;2023-04-03T10:35:24;12.76;24.34
75363;DHT22;64122;51.988;5.892;2023-04-03T10:38:05;12.74;24.53
75363;DHT22;64122;51.988;5.892;2023-04-03T10:40:46;12.74;24.77
75363;DHT22;64122;51.988;5.892;2023-04-03T10:43:24;12.67;24.94
75363;DHT22;64122;51.988;5.892;2023-04-03T10:46:04;12.52;24.92
75363;DHT22;64122;51.988;5.892;2023-04-03T10:48:47;12.29;25.55
75363;DHT22;64122;51.988;5.892;2023-04-03T10:51:25;12.43;26.02
75363;DHT22;64122;51.988;5.892;2023-04-03T10:54:03;12.47;26.32
75363;DHT22;64122;51.988;5.892;2023-04-03T10:56:38;12.56;26.18
75363;DHT22;64122;51.988;5.892;2023-04-03T10:59:23;12.55;26.68
75363;DHT22;64122;51.988;5.892;2023-04-03T11:01:56;12.50;26.20
75363;DHT22;64122;51.988;5.892;2023-04-03T11:04:31;12.50;26.08
75363;DHT22;64122;51.988;5.892;2023-04-03T11:07:16;12.47;25.69
75363;DHT22;64122;51.988;5.892;2023-04-03T11:09:50;12.46;25.70
75363;DHT22;64122;51.988;5.892;2023-04-03T11:12:24;12.51;26.10
75363;DHT22;64122;51.988;5.892;2023-04-03T11:14:58;12.59;25.97
75363;DHT22;64122;51.988;5.892;2023-04-03T11:17:33;12.59;25.44
75363;DHT22;64122;51.988;5.892;2023-04-03T11:20:10;12.56;25.12
75363;DHT22;64122;51.988;5.892;2023-04-03T11:22:46;12.56;24.94
75363;DHT22;64122;51.988;5.892;2023-04-03T11:25:20;12.42;24.57
75363;DHT22;64122;51.988;5.892;2023-04-03T11:27:55;12.30;24.64
75363;DHT22;64122;51.988;5.892;2023-04-03T11:30:31;12.22;24.48
75363;DHT22;64122;51.988;5.892;2023-04-03T11:33:19;12.25;24.90
75363;DHT22;64122;51.988;5.892;2023-04-03T11:35:57;12.26;24.91
75363;DHT22;64122;51.988;5.892;2023-04-03T11:38:31;12.19;25.14
75363;DHT22;64122;51.988;5.892;2023-04-03T11:41:09;12.18;25.40
75363;DHT22;64122;51.988;5.892;2023-04-03T11:43:41;12.19;25.10
75363;DHT22;64122;51.988;5.892;2023-04-03T11:46:16;12.10;25.56
75363;DHT22;64122;51.988;5.892;2023-04-03T11:48:50;12.03;25.56
75363;DHT22;64122;51.988;5.892;2023-04-03T11:51:46;12.11;25.89
75363;DHT22;64122;51.988;5.892;2023-04-03T11:54:44;12.11;25.57
75363;DHT22;64122;51.988;5.892;2023-04-03T12:00:50;12.20;26.12
75363;DHT22;64122;51.988;5.892;2023-04-03T12:07:01;12.12;26.30
75363;DHT22;64122;51.988;5.892;2023-04-03T12:09:35;11.96;26.46
75363;DHT22;64122;51.988;5.892;2023-04-03T12:12:39;12.03;26.81
75363;DHT22;64122;51.988;5.892;2023-04-03T12:15:19;12.07;26.81
75363;DHT22;64122;51.988;5.892;2023-04-03T12:17:49;12.16;27.09
75363;DHT22;64122;51.988;5.892;2023-04-03T12:23:35;12.10;27.40
75363;DHT22;64122;51.988;5.892;2023-04-03T12:26:19;12.03;27.30
75363;DHT22;64122;51.988;5.892;2023-04-03T12:28:51;11.81;27.60
75363;DHT22;64122;51.988;5.892;2023-04-03T12:31:25;11.97;27.83
75363;DHT22;64122;51.988;5.892;2023-04-03T12:34:18;11.99;27.66
75363;DHT22;64122;51.988;5.892;2023-04-03T12:36:59;11.96;27.53
75363;DHT22;64122;51.988;5.892;2023-04-03T12:39:52;11.84;27.55
75363;DHT22;64122;51.988;5.892;2023-04-03T12:42:38;11.75;27.44
75363;DHT22;64122;51.988;5.892;2023-04-03T12:45:17;11.77;27.06
75363;DHT22;64122;51.988;5.892;2023-04-03T12:47:49;11.88;27.09
75363;DHT22;64122;51.988;5.892;2023-04-03T12:50:27;11.98;27.70
75363;DHT22;64122;51.988;5.892;2023-04-03T12:52:59;11.96;27.03
75363;DHT22;64122;51.988;5.892;2023-04-03T12:55:33;11.98;27.61
75363;DHT22;64122;51.988;5.892;2023-04-03T12:58:14;11.96;27.30
75363;DHT22;64122;51.988;5.892;2023-04-03T13:00:45;12.01;27.36
75363;DHT22;64122;51.988;5.892;2023-04-03T13:03:23;11.93;27.30
75363;DHT22;64122;51.988;5.892;2023-04-03T13:05:56;11.91;27.58
75363;DHT22;64122;51.988;5.892;2023-04-03T13:08:27;11.83;27.47
75363;DHT22;64122;51.988;5.892;2023-04-03T13:11:02;11.73;27.71
75363;DHT22;64122;51.988;5.892;2023-04-03T13:13:33;11.72;27.78
75363;DHT22;64122;51.988;5.892;2023-04-03T13:16:08;11.78;27.85
75363;DHT22;64122;51.988;5.892;2023-04-03T13:18:41;11.72;28.13
75363;DHT22;64122;51.988;5.892;2023-04-03T13:21:15;11.66;27.81
75363;DHT22;64122;51.988;5.892;2023-04-03T13:23:49;11.72;27.38
75363;DHT22;64122;51.988;5.892;2023-04-03T13:26:24;11.71;27.91
75363;DHT22;64122;51.988;5.892;2023-04-03T13:28:58;11.70;27.77
75363;DHT22;64122;51.988;5.892;2023-04-03T13:31:34;11.77;28.03
75363;DHT22;64122;51.988;5.892;2023-04-03T13:34:20;11.77;28.14
75363;DHT22;64122;51.988;5.892;2023-04-03T13:37:05;11.88;28.41
75363;DHT22;64122;51.988;5.892;2023-04-03T13:39:37;12.02;28.56
75363;DHT22;64122;51.988;5.892;2023-04-03T13:42:23;11.93;28.09
75363;DHT22;64122;51.988;5.892;2023-04-03T13:45:08;11.78;28.55
75363;DHT22;64122;51.988;5.892;2023-04-03T13:47:39;11.91;28.52
75363;DHT22;64122;51.988;5.892;2023-04-03T13:50:17;11.98;28.26
75363;DHT22;64122;51.988;5.892;2023-04-03T13:52:49;11.98;28.51
75363;DHT22;64122;51.988;5.892;2023-04-03T13:55:24;12.01;28.61
75363;DHT22;64122;51.988;5.892;2023-04-03T13:57:59;12.18;28.94
75363;DHT22;64122;51.988;5.892;2023-04-03T14:00:35;12.32;29.05
75363;DHT22;64122;51.988;5.892;2023-04-03T14:03:13;12.32;29.16
75363;DHT22;64122;51.988;5.892;2023-04-03T14:05:42;12.25;28.82
75363;DHT22;64122;51.988;5.892;2023-04-03T14:08:12;12.13;28.90
75363;DHT22;64122;51.988;5.892;2023-04-03T14:10:42;12.16;29.58
75363;DHT22;64122;51.988;5.892;2023-04-03T14:13:18;12.06;29.43
75363;DHT22;64122;51.988;5.892;2023-04-03T14:15:49;12.06;29.28
75363;DHT22;64122;51.988;5.892;2023-04-03T14:18:20;12.08;29.61
75363;DHT22;64122;51.988;5.892;2023-04-03T14:20:52;12.15;28.90
75363;DHT22;64122;51.988;5.892;2023-04-03T14:23:22;12.18;28.87
75363;DHT22;64122;51.988;5.892;2023-04-03T14:28:41;12.13;29.25
75363;DHT22;64122;51.988;5.892;2023-04-03T14:31:14;12.18;29.20
75363;DHT22;64122;51.988;5.892;2023-04-03T14:33:44;12.07;29.73
75363;DHT22;64122;51.988;5.892;2023-04-03T14:36:20;12.00;29.57
75363;DHT22;64122;51.988;5.892;2023-04-03T14:38:52;12.01;29.85
75363;DHT22;64122;51.988;5.892;2023-04-03T14:41:25;11.86;30.08
75363;DHT22;64122;51.988;5.892;2023-04-03T14:44:10;11.85;30.18
75363;DHT22;64122;51.988;5.892;2023-04-03T14:46:50;11.87;30.57
75363;DHT22;64122;51.988;5.892;2023-04-03T14:49:28;11.96;30.51
75363;DHT22;64122;51.988;5.892;2023-04-03T14:52:02;12.08;30.83
75363;DHT22;64122;51.988;5.892;2023-04-03T14:54:45;12.04;30.87
75363;DHT22;64122;51.988;5.892;2023-04-03T14:57:23;12.03;31.25
75363;DHT22;64122;51.988;5.892;2023-04-03T15:00:01;12.07;31.30
75363;DHT22;64122;51.988;5.892;2023-04-03T15:02:42;12.02;31.30
75363;DHT22;64122;51.988;5.892;2023-04-03T15:05:14;12.12;31.69
75363;DHT22;64122;51.988;5.892;2023-04-03T15:08:08;12.08;31.76
75363;DHT22;64122;51.988;5.892;2023-04-03T15:10:45;12.03;31.91
75363;DHT22;64122;51.988;5.892;2023-04-03T15:13:21;12.06;31.87
75363;DHT22;64122;51.988;5.892;2023-04-03T15:16:05;11.96;31.70
75363;DHT22;64122;51.988;5.892;2023-04-03T15:18:46;11.91;31.97
75363;DHT22;64122;51.988;5.892;2023-04-03T15:21:16;11.92;32.08
75363;DHT22;64122;51.988;5.892;2023-04-03T15:23:46;12.01;31.72
75363;DHT22;64122;51.988;5.892;2023-04-03T15:26:15;11.97;31.03
75363;DHT22;64122;51.988;5.892;2023-04-03T15:28:46;11.88;30.90
75363;DHT22;64122;51.988;5.892;2023-04-03T15:31:18;11.75;31.17
75363;DHT22;64122;51.988;5.892;2023-04-03T15:33:48;11.74;31.21
75363;DHT22;64122;51.988;5.892;2023-04-03T15:36:18;11.59;31.70
75363;DHT22;64122;51.988;5.892;2023-04-03T15:38:48;11.59;32.17
75363;DHT22;64122;51.988;5.892;2023-04-03T15:41:17;11.59;32.27
75363;DHT22;64122;51.988;5.892;2023-04-03T15:43:47;11.58;32.06
75363;DHT22;64122;51.988;5.892;2023-04-03T15:46:19;11.56;32.59
75363;DHT22;64122;51.988;5.892;2023-04-03T15:48:49;11.56;32.78
75363;DHT22;64122;51.988;5.892;2023-04-03T15:51:18;11.58;32.78
75363;DHT22;64122;51.988;5.892;2023-04-03T15:53:48;11.57;32.57
75363;DHT22;64122;51.988;5.892;2023-04-03T15:56:28;11.59;32.54
75363;DHT22;64122;51.988;5.892;2023-04-03T15:58:58;11.84;31.95
75363;DHT22;64122;51.988;5.892;2023-04-03T16:01:31;11.94;31.46
75363;DHT22;64122;51.988;5.892;2023-04-03T16:04:04;12.12;31.23
75363;DHT22;64122;51.988;5.892;2023-04-03T16:06:33;12.17;31.31
75363;DHT22;64122;51.988;5.892;2023-04-03T16:11:45;11.67;32.32
75363;DHT22;64122;51.988;5.892;2023-04-03T16:14:15;11.48;32.87
75363;DHT22;64122;51.988;5.892;2023-04-03T16:16:47;11.33;33.13
75363;DHT22;64122;51.988;5.892;2023-04-03T16:19:17;11.25;33.45
75363;DHT22;64122;51.988;5.892;2023-04-03T16:21:47;11.22;33.80
75363;DHT22;64122;51.988;5.892;2023-04-03T16:24:16;11.15;33.71
75363;DHT22;64122;51.988;5.892;2023-04-03T16:26:49;11.10;33.69
75363;DHT22;64122;51.988;5.892;2023-04-03T16:29:19;11.01;33.96
75363;DHT22;64122;51.988;5.892;2023-04-03T16:31:51;10.88;34.04
75363;DHT22;64122;51.988;5.892;2023-04-03T16:34:21;10.85;34.05
75363;DHT22;64122;51.988;5.892;2023-04-03T16:36:51;10.84;34.12
75363;DHT22;64122;51.988;5.892;2023-04-03T16:39:21;10.82;34.58
75363;DHT22;64122;51.988;5.892;2023-04-03T16:41:50;10.82;34.57
75363;DHT22;64122;51.988;5.892;2023-04-03T16:44:20;10.79;34.63
75363;DHT22;64122;51.988;5.892;2023-04-03T16:46:52;10.70;34.51
75363;DHT22;64122;51.988;5.892;2023-04-03T16:49:22;10.64;34.73
75363;DHT22;64122;51.988;5.892;2023-04-03T16:51:53;10.63;34.98
75363;DHT22;64122;51.988;5.892;2023-04-03T16:54:23;10.53;35.40
75363;DHT22;64122;51.988;5.892;2023-04-03T16:56:53;10.53;35.34
75363;DHT22;64122;51.988;5.892;2023-04-03T16:59:24;10.52;35.37
75363;DHT22;64122;51.988;5.892;2023-04-03T17:01:57;10.45;35.11
75363;DHT22;64122;51.988;5.892;2023-04-03T17:04:26;10.40;35.48
75363;DHT22;64122;51.988;5.892;2023-04-03T17:06:56;10.36;35.81